sensor_id;sensor_type;location;lat;lon;timestamp;pressure;altitude;pressure_sealevel;temperature;humidity
66801;BME280;53703;50.326;19.122;2023-03-04T00:00:10;98738.51;;;17.75;40.70
66801;BME280;53703;50.326;19.122;2023-03-04T00:03:22;98734.34;;;17.75;40.67
66801;BME280;53703;50.326;19.122;2023-03-04T00:06:16;98734.17;;;17.77;40.49
66801;BME280;53703;50.326;19.122;2023-03-04T00:09:10;98732.17;;;17.74;40.57
66801;BME280;53703;50.326;19.122;2023-03-04T00:12:04;98727.01;;;17.75;40.48
66801;BME280;53703;50.326;19.122;2023-03-04T00:15:00;98717.78;;;17.73;40.47
66801;BME280;53703;50.326;19.122;2023-03-04T00:17:53;98715.60;;;17.73;40.51
66801;BME280;53703;50.326;19.122;2023-03-04T00:20:47;98717.83;;;17.74;40.45
66801;BME280;53703;50.326;19.122;2023-03-04T00:23:40;98716.38;;;17.73;40.58
66801;BME280;53703;50.326;19.122;2023-03-04T00:26:35;98711.48;;;17.75;40.25
66801;BME280;53703;50.326;19.122;2023-03-04T00:29:28;98707.55;;;17.92;40.22
66801;BME280;53703;50.326;19.122;2023-03-04T00:32:22;98706.84;;;17.84;40.14
66801;BME280;53703;50.326;19.122;2023-03-04T00:35:16;98704.81;;;17.74;40.25
66801;BME280;53703;50.326;19.122;2023-03-04T00:38:10;98696.54;;;17.75;40.33
66801;BME280;53703;50.326;19.122;2023-03-04T00:41:03;98692.27;;;17.88;40.14
66801;BME280;53703;50.326;19.122;2023-03-04T00:43:57;98693.73;;;17.86;40.25
66801;BME280;53703;50.326;19.122;2023-03-04T00:46:51;98684.05;;;17.76;40.18
66801;BME280;53703;50.326;19.122;2023-03-04T00:49:44;98680.45;;;17.85;39.93
66801;BME280;53703;50.326;19.122;2023-03-04T00:52:38;98669.57;;;17.74;39.95
66801;BME280;53703;50.326;19.122;2023-03-04T00:55:31;98658.09;;;17.71;40.23
66801;BME280;53703;50.326;19.122;2023-03-04T00:58:25;98650.82;;;17.73;40.02
66801;BME280;53703;50.326;19.122;2023-03-04T01:01:19;98647.12;;;17.73;40.02
66801;BME280;53703;50.326;19.122;2023-03-04T01:04:13;98643.16;;;17.75;40.00
66801;BME280;53703;50.326;19.122;2023-03-04T01:07:06;98634.16;;;17.72;39.86
66801;BME280;53703;50.326;19.122;2023-03-04T01:10:00;98630.59;;;17.71;40.05
66801;BME280;53703;50.326;19.122;2023-03-04T01:12:54;98629.98;;;17.74;40.04
66801;BME280;53703;50.326;19.122;2023-03-04T01:15:47;98626.46;;;17.73;39.91
66801;BME280;53703;50.326;19.122;2023-03-04T01:18:41;98622.27;;;17.72;39.83
66801;BME280;53703;50.326;19.122;2023-03-04T01:21:36;98615.50;;;17.73;39.95
66801;BME280;53703;50.326;19.122;2023-03-04T01:24:29;98611.59;;;17.76;39.88
66801;BME280;53703;50.326;19.122;2023-03-04T01:27:23;98615.21;;;17.79;39.85
66801;BME280;53703;50.326;19.122;2023-03-04T01:30:17;98607.85;;;17.81;40.13
66801;BME280;53703;50.326;19.122;2023-03-04T01:33:11;98612.37;;;17.82;39.83
66801;BME280;53703;50.326;19.122;2023-03-04T01:36:05;98605.73;;;17.71;39.96
66801;BME280;53703;50.326;19.122;2023-03-04T01:38:59;98601.61;;;17.72;39.95
66801;BME280;53703;50.326;19.122;2023-03-04T01:41:53;98594.42;;;17.69;40.01
66801;BME280;53703;50.326;19.122;2023-03-04T01:44:47;98590.15;;;17.68;39.94
66801;BME280;53703;50.326;19.122;2023-03-04T01:47:41;98587.42;;;17.67;39.99
66801;BME280;53703;50.326;19.122;2023-03-04T01:50:39;98588.85;;;17.65;40.00
66801;BME280;53703;50.326;19.122;2023-03-04T01:53:33;98586.23;;;17.67;39.99
66801;BME280;53703;50.326;19.122;2023-03-04T01:56:29;98588.67;;;17.56;40.14
66801;BME280;53703;50.326;19.122;2023-03-04T01:59:25;98587.04;;;17.57;40.48
66801;BME280;53703;50.326;19.122;2023-03-04T02:02:19;98582.32;;;17.62;40.32
66801;BME280;53703;50.326;19.122;2023-03-04T02:05:13;98578.88;;;17.64;40.40
66801;BME280;53703;50.326;19.122;2023-03-04T02:08:09;98575.09;;;17.63;40.26
66801;BME280;53703;50.326;19.122;2023-03-04T02:11:03;98570.63;;;17.70;40.54
66801;BME280;53703;50.326;19.122;2023-03-04T02:13:56;98570.30;;;17.56;40.94
66801;BME280;53703;50.326;19.122;2023-03-04T02:16:51;98568.99;;;17.57;41.02
66801;BME280;53703;50.326;19.122;2023-03-04T02:19:49;98558.09;;;17.57;41.10
66801;BME280;53703;50.326;19.122;2023-03-04T02:22:50;98557.08;;;17.60;41.05
66801;BME280;53703;50.326;19.122;2023-03-04T02:25:49;98552.71;;;17.64;41.03
66801;BME280;53703;50.326;19.122;2023-03-04T02:28:43;98547.79;;;17.57;41.07
66801;BME280;53703;50.326;19.122;2023-03-04T02:31:39;98544.56;;;17.58;41.15
66801;BME280;53703;50.326;19.122;2023-03-04T02:34:35;98540.27;;;17.59;41.13
66801;BME280;53703;50.326;19.122;2023-03-04T02:37:29;98535.50;;;17.58;41.14
66801;BME280;53703;50.326;19.122;2023-03-04T02:40:28;98534.50;;;17.53;41.19
66801;BME280;53703;50.326;19.122;2023-03-04T02:43:23;98533.45;;;17.60;41.12
66801;BME280;53703;50.326;19.122;2023-03-04T02:46:17;98531.36;;;17.62;41.12
66801;BME280;53703;50.326;19.122;2023-03-04T02:49:10;98527.58;;;17.59;41.13
66801;BME280;53703;50.326;19.122;2023-03-04T02:52:08;98525.48;;;17.58;41.18
66801;BME280;53703;50.326;19.122;2023-03-04T02:55:01;98515.45;;;17.54;41.21
66801;BME280;53703;50.326;19.122;2023-03-04T02:57:56;98512.02;;;17.50;41.31
66801;BME280;53703;50.326;19.122;2023-03-04T03:00:50;98507.98;;;17.51;41.29
66801;BME280;53703;50.326;19.122;2023-03-04T03:03:43;98509.48;;;17.46;41.47
66801;BME280;53703;50.326;19.122;2023-03-04T03:06:37;98511.16;;;17.44;41.41
66801;BME280;53703;50.326;19.122;2023-03-04T03:09:31;98511.73;;;17.47;41.38
66801;BME280;53703;50.326;19.122;2023-03-04T03:12:24;98514.88;;;17.45;41.48
66801;BME280;53703;50.326;19.122;2023-03-04T03:15:00;98519.77;;;17.42;41.45
66801;BME280;53703;50.326;19.122;2023-03-04T03:17:37;98512.57;;;17.44;41.48
66801;BME280;53703;50.326;19.122;2023-03-04T03:20:30;98508.16;;;17.47;41.37
66801;BME280;53703;50.326;19.122;2023-03-04T03:23:24;98512.42;;;17.42;41.42
66801;BME280;53703;50.326;19.122;2023-03-04T03:26:19;98517.37;;;17.43;41.36
66801;BME280;53703;50.326;19.122;2023-03-04T03:29:13;98516.55;;;17.40;41.50
66801;BME280;53703;50.326;19.122;2023-03-04T03:32:07;98510.96;;;17.40;41.39
66801;BME280;53703;50.326;19.122;2023-03-04T03:35:01;98509.46;;;17.43;41.46
66801;BME280;53703;50.326;19.122;2023-03-04T03:37:55;98514.52;;;17.43;41.50
66801;BME280;53703;50.326;19.122;2023-03-04T03:40:49;98513.31;;;17.39;41.51
66801;BME280;53703;50.326;19.122;2023-03-04T03:43:43;98508.30;;;17.43;41.41
66801;BME280;53703;50.326;19.122;2023-03-04T03:46:36;98506.01;;;17.43;41.52
66801;BME280;53703;50.326;19.122;2023-03-04T03:49:30;98509.17;;;17.44;41.47
66801;BME280;53703;50.326;19.122;2023-03-04T03:52:24;98506.65;;;17.44;41.43
66801;BME280;53703;50.326;19.122;2023-03-04T03:55:17;98509.17;;;17.44;41.47
66801;BME280;53703;50.326;19.122;2023-03-04T03:57:58;98509.93;;;17.46;41.42
66801;BME280;53703;50.326;19.122;2023-03-04T04:00:52;98509.81;;;17.47;41.45
66801;BME280;53703;50.326;19.122;2023-03-04T04:03:49;98517.89;;;17.45;41.43
66801;BME280;53703;50.326;19.122;2023-03-04T04:06:43;98512.58;;;17.42;41.49
66801;BME280;53703;50.326;19.122;2023-03-04T04:09:36;98507.20;;;17.44;41.43
66801;BME280;53703;50.326;19.122;2023-03-04T04:12:30;98507.77;;;17.41;41.53
66801;BME280;53703;50.326;19.122;2023-03-04T04:15:24;98502.33;;;17.38;41.51
66801;BME280;53703;50.326;19.122;2023-03-04T04:18:17;98498.98;;;17.40;41.50
66801;BME280;53703;50.326;19.122;2023-03-04T04:21:11;98494.45;;;17.31;41.65
66801;BME280;53703;50.326;19.122;2023-03-04T04:24:05;98491.92;;;17.33;41.60
66801;BME280;53703;50.326;19.122;2023-03-04T04:26:59;98490.40;;;17.33;41.69
66801;BME280;53703;50.326;19.122;2023-03-04T04:29:52;98486.27;;;17.34;41.61
66801;BME280;53703;50.326;19.122;2023-03-04T04:32:46;98487.38;;;17.35;41.65
66801;BME280;53703;50.326;19.122;2023-03-04T04:35:40;98487.11;;;17.33;41.62
66801;BME280;53703;50.326;19.122;2023-03-04T04:38:33;98486.05;;;17.35;41.64
66801;BME280;53703;50.326;19.122;2023-03-04T04:41:31;98490.89;;;17.30;41.64
66801;BME280;53703;50.326;19.122;2023-03-04T04:44:27;98489.87;;;17.22;41.82
66801;BME280;53703;50.326;19.122;2023-03-04T04:47:21;98493.06;;;17.24;41.91
66801;BME280;53703;50.326;19.122;2023-03-04T04:50:15;98489.77;;;17.22;41.96
66801;BME280;53703;50.326;19.122;2023-03-04T04:53:08;98489.98;;;17.20;42.03
66801;BME280;53703;50.326;19.122;2023-03-04T04:56:09;98492.52;;;17.19;42.12
66801;BME280;53703;50.326;19.122;2023-03-04T04:59:04;98487.20;;;17.20;42.06
66801;BME280;53703;50.326;19.122;2023-03-04T05:01:59;98487.80;;;17.22;41.94
66801;BME280;53703;50.326;19.122;2023-03-04T05:04:52;98481.75;;;17.22;41.98
66801;BME280;53703;50.326;19.122;2023-03-04T05:07:46;98485.58;;;17.27;41.99
66801;BME280;53703;50.326;19.122;2023-03-04T05:10:40;98482.05;;;17.24;42.05
66801;BME280;53703;50.326;19.122;2023-03-04T05:13:33;98483.70;;;17.27;42.00
66801;BME280;53703;50.326;19.122;2023-03-04T05:16:12;98474.92;;;17.26;41.89
66801;BME280;53703;50.326;19.122;2023-03-04T05:19:06;98476.91;;;17.27;41.94
66801;BME280;53703;50.326;19.122;2023-03-04T05:22:00;98471.77;;;17.26;41.98
66801;BME280;53703;50.326;19.122;2023-03-04T05:24:54;98467.88;;;17.25;41.91
66801;BME280;53703;50.326;19.122;2023-03-04T05:27:48;98468.73;;;17.22;41.98
66801;BME280;53703;50.326;19.122;2023-03-04T05:30:44;98466.57;;;17.20;42.04
66801;BME280;53703;50.326;19.122;2023-03-04T05:33:38;98459.16;;;17.20;42.15
66801;BME280;53703;50.326;19.122;2023-03-04T05:36:32;98457.45;;;17.19;42.00
66801;BME280;53703;50.326;19.122;2023-03-04T05:39:26;98453.53;;;17.24;41.73
66801;BME280;53703;50.326;19.122;2023-03-04T05:42:20;98456.11;;;17.24;41.80
66801;BME280;53703;50.326;19.122;2023-03-04T05:45:14;98457.45;;;17.21;41.84
66801;BME280;53703;50.326;19.122;2023-03-04T05:48:08;98458.02;;;17.22;41.86
66801;BME280;53703;50.326;19.122;2023-03-04T05:51:03;98458.65;;;17.21;41.84
66801;BME280;53703;50.326;19.122;2023-03-04T05:53:56;98460.91;;;17.16;41.59
66801;BME280;53703;50.326;19.122;2023-03-04T05:56:33;98457.38;;;17.24;41.03
66801;BME280;53703;50.326;19.122;2023-03-04T05:59:34;98451.77;;;17.27;41.26
66801;BME280;53703;50.326;19.122;2023-03-04T06:02:30;98433.90;;;17.35;40.69
66801;BME280;53703;50.326;19.122;2023-03-04T06:05:24;98434.81;;;17.51;39.95
66801;BME280;53703;50.326;19.122;2023-03-04T06:08:17;98433.91;;;17.53;40.84
66801;BME280;53703;50.326;19.122;2023-03-04T06:11:11;98433.70;;;17.48;41.87
66801;BME280;53703;50.326;19.122;2023-03-04T06:14:05;98433.07;;;17.48;41.30
66801;BME280;53703;50.326;19.122;2023-03-04T06:16:58;98432.81;;;17.47;41.97
66801;BME280;53703;50.326;19.122;2023-03-04T06:19:52;98431.22;;;17.59;41.86
66801;BME280;53703;50.326;19.122;2023-03-04T06:22:46;98431.51;;;17.51;40.98
66801;BME280;53703;50.326;19.122;2023-03-04T06:25:39;98438.79;;;17.47;41.30
66801;BME280;53703;50.326;19.122;2023-03-04T06:28:33;98439.68;;;17.50;41.06
66801;BME280;53703;50.326;19.122;2023-03-04T06:31:27;98435.61;;;17.45;41.19
66801;BME280;53703;50.326;19.122;2023-03-04T06:34:20;98446.31;;;17.48;41.08
66801;BME280;53703;50.326;19.122;2023-03-04T06:37:02;98454.91;;;17.48;40.82
66801;BME280;53703;50.326;19.122;2023-03-04T06:39:56;98451.08;;;17.52;40.85
66801;BME280;53703;50.326;19.122;2023-03-04T06:42:50;98456.67;;;17.52;40.60
66801;BME280;53703;50.326;19.122;2023-03-04T06:45:44;98460.66;;;17.48;40.57
66801;BME280;53703;50.326;19.122;2023-03-04T06:48:37;98468.19;;;17.38;41.63
66801;BME280;53703;50.326;19.122;2023-03-04T06:51:31;98477.54;;;17.45;40.84
66801;BME280;53703;50.326;19.122;2023-03-04T06:54:25;98473.81;;;17.47;40.56
66801;BME280;53703;50.326;19.122;2023-03-04T06:57:18;98485.19;;;17.48;40.48
66801;BME280;53703;50.326;19.122;2023-03-04T07:00:16;98483.02;;;17.58;40.93
66801;BME280;53703;50.326;19.122;2023-03-04T07:03:11;98483.30;;;17.52;40.44
66801;BME280;53703;50.326;19.122;2023-03-04T07:06:06;98482.55;;;17.50;40.13
66801;BME280;53703;50.326;19.122;2023-03-04T07:09:00;98480.71;;;17.52;40.12
66801;BME280;53703;50.326;19.122;2023-03-04T07:11:54;98488.45;;;17.52;39.96
66801;BME280;53703;50.326;19.122;2023-03-04T07:14:47;98487.89;;;17.52;39.99
66801;BME280;53703;50.326;19.122;2023-03-04T07:17:41;98485.01;;;17.51;40.04
66801;BME280;53703;50.326;19.122;2023-03-04T07:20:35;98483.92;;;17.51;40.02
66801;BME280;53703;50.326;19.122;2023-03-04T07:23:29;98478.64;;;17.51;39.83
66801;BME280;53703;50.326;19.122;2023-03-04T07:26:22;98483.80;;;17.50;40.65
66801;BME280;53703;50.326;19.122;2023-03-04T07:29:17;98484.33;;;17.57;40.37
66801;BME280;53703;50.326;19.122;2023-03-04T07:32:12;98486.71;;;17.55;40.75
66801;BME280;53703;50.326;19.122;2023-03-04T07:35:07;98488.80;;;17.51;40.37
66801;BME280;53703;50.326;19.122;2023-03-04T07:38:01;98488.58;;;17.51;40.06
66801;BME280;53703;50.326;19.122;2023-03-04T07:40:59;98486.52;;;17.54;40.15
66801;BME280;53703;50.326;19.122;2023-03-04T07:43:51;98486.77;;;17.51;40.47
66801;BME280;53703;50.326;19.122;2023-03-04T07:46:45;98495.10;;;17.51;40.16
66801;BME280;53703;50.326;19.122;2023-03-04T07:49:39;98485.10;;;17.57;40.00
66801;BME280;53703;50.326;19.122;2023-03-04T07:52:32;98490.45;;;17.42;40.59
66801;BME280;53703;50.326;19.122;2023-03-04T07:55:26;98492.46;;;17.49;40.51
66801;BME280;53703;50.326;19.122;2023-03-04T07:58:21;98486.95;;;17.49;40.40
66801;BME280;53703;50.326;19.122;2023-03-04T08:01:17;98483.10;;;17.59;39.80
66801;BME280;53703;50.326;19.122;2023-03-04T08:04:12;98487.95;;;17.69;40.03
66801;BME280;53703;50.326;19.122;2023-03-04T08:07:05;98490.45;;;17.60;39.92
66801;BME280;53703;50.326;19.122;2023-03-04T08:09:59;98496.39;;;17.51;39.91
66801;BME280;53703;50.326;19.122;2023-03-04T08:12:53;98498.91;;;17.55;39.89
66801;BME280;53703;50.326;19.122;2023-03-04T08:15:46;98495.14;;;17.55;39.84
66801;BME280;53703;50.326;19.122;2023-03-04T08:18:40;98492.92;;;17.65;40.24
66801;BME280;53703;50.326;19.122;2023-03-04T08:21:34;98492.19;;;17.59;39.85
66801;BME280;53703;50.326;19.122;2023-03-04T08:24:28;98496.58;;;17.56;39.75
66801;BME280;53703;50.326;19.122;2023-03-04T08:27:22;98496.62;;;17.51;39.77
66801;BME280;53703;50.326;19.122;2023-03-04T08:30:16;98490.13;;;17.53;39.84
66801;BME280;53703;50.326;19.122;2023-03-04T08:33:10;98490.15;;;17.60;39.90
66801;BME280;53703;50.326;19.122;2023-03-04T08:36:05;98497.88;;;17.51;39.85
66801;BME280;53703;50.326;19.122;2023-03-04T08:39:00;98493.98;;;17.50;40.16
66801;BME280;53703;50.326;19.122;2023-03-04T08:41:54;98497.32;;;17.48;40.15
66801;BME280;53703;50.326;19.122;2023-03-04T08:44:48;98494.49;;;17.43;39.90
66801;BME280;53703;50.326;19.122;2023-03-04T08:47:41;98492.48;;;17.64;39.98
66801;BME280;53703;50.326;19.122;2023-03-04T08:50:36;98489.59;;;17.80;39.83
66801;BME280;53703;50.326;19.122;2023-03-04T08:53:15;98487.00;;;17.52;39.73
66801;BME280;53703;50.326;19.122;2023-03-04T08:56:10;98490.81;;;17.44;39.96
66801;BME280;53703;50.326;19.122;2023-03-04T08:59:04;98492.19;;;17.43;39.89
66801;BME280;53703;50.326;19.122;2023-03-04T09:01:57;98490.95;;;17.41;40.01
66801;BME280;53703;50.326;19.122;2023-03-04T09:04:51;98492.30;;;17.44;39.91
66801;BME280;53703;50.326;19.122;2023-03-04T09:07:45;98485.92;;;17.58;39.90
66801;BME280;53703;50.326;19.122;2023-03-04T09:10:39;98484.33;;;17.51;39.60
66801;BME280;53703;50.326;19.122;2023-03-04T09:13:33;98482.70;;;17.70;39.98
66801;BME280;53703;50.326;19.122;2023-03-04T09:16:27;98477.23;;;17.80;40.05
66801;BME280;53703;50.326;19.122;2023-03-04T09:19:20;98477.95;;;17.86;40.73
66801;BME280;53703;50.326;19.122;2023-03-04T09:22:14;98476.25;;;17.79;41.47
66801;BME280;53703;50.326;19.122;2023-03-04T09:25:10;98476.89;;;17.74;41.12
66801;BME280;53703;50.326;19.122;2023-03-04T09:28:05;98477.45;;;17.62;41.12
66801;BME280;53703;50.326;19.122;2023-03-04T09:30:59;98475.35;;;17.69;41.34
66801;BME280;53703;50.326;19.122;2023-03-04T09:33:54;98474.66;;;17.64;40.27
66801;BME280;53703;50.326;19.122;2023-03-04T09:36:48;98477.23;;;17.54;40.26
66801;BME280;53703;50.326;19.122;2023-03-04T09:39:42;98476.17;;;17.56;39.87
66801;BME280;53703;50.326;19.122;2023-03-04T09:42:43;98476.10;;;17.54;40.19
66801;BME280;53703;50.326;19.122;2023-03-04T09:45:45;98478.43;;;17.58;40.04
66801;BME280;53703;50.326;19.122;2023-03-04T09:48:46;98469.13;;;17.55;39.85
66801;BME280;53703;50.326;19.122;2023-03-04T09:51:51;98470.98;;;17.53;39.98
66801;BME280;53703;50.326;19.122;2023-03-04T09:55:04;98479.65;;;17.48;40.32
66801;BME280;53703;50.326;19.122;2023-03-04T09:57:49;98474.52;;;17.47;40.35
66801;BME280;53703;50.326;19.122;2023-03-04T10:00:50;98472.73;;;17.49;40.31
66801;BME280;53703;50.326;19.122;2023-03-04T10:03:51;98473.95;;;17.47;40.49
66801;BME280;53703;50.326;19.122;2023-03-04T10:06:47;98473.58;;;17.45;40.43
66801;BME280;53703;50.326;19.122;2023-03-04T10:09:52;98467.99;;;17.45;40.37
66801;BME280;53703;50.326;19.122;2023-03-04T10:12:50;98465.35;;;17.44;40.20
66801;BME280;53703;50.326;19.122;2023-03-04T10:15:49;98458.00;;;17.43;40.40
66801;BME280;53703;50.326;19.122;2023-03-04T10:18:50;98450.91;;;17.40;40.45
66801;BME280;53703;50.326;19.122;2023-03-04T10:21:47;98453.69;;;17.41;40.63
66801;BME280;53703;50.326;19.122;2023-03-04T10:24:41;98448.30;;;17.40;40.60
66801;BME280;53703;50.326;19.122;2023-03-04T10:27:38;98446.94;;;17.42;40.70
66801;BME280;53703;50.326;19.122;2023-03-04T10:30:43;98440.52;;;17.38;40.37
66801;BME280;53703;50.326;19.122;2023-03-04T10:33:41;98442.00;;;17.49;40.23
66801;BME280;53703;50.326;19.122;2023-03-04T10:36:49;98438.80;;;17.44;40.72
66801;BME280;53703;50.326;19.122;2023-03-04T10:39:50;98435.52;;;17.45;40.57
66801;BME280;53703;50.326;19.122;2023-03-04T10:42:44;98429.37;;;17.45;40.40
66801;BME280;53703;50.326;19.122;2023-03-04T10:45:41;98432.70;;;17.46;40.13
66801;BME280;53703;50.326;19.122;2023-03-04T10:48:36;98426.20;;;17.42;40.11
66801;BME280;53703;50.326;19.122;2023-03-04T10:51:43;98424.73;;;17.40;40.92
66801;BME280;53703;50.326;19.122;2023-03-04T10:54:41;98419.20;;;17.42;40.42
66801;BME280;53703;50.326;19.122;2023-03-04T10:57:41;98412.52;;;17.35;40.19
66801;BME280;53703;50.326;19.122;2023-03-04T11:00:37;98409.85;;;17.35;40.29
66801;BME280;53703;50.326;19.122;2023-03-04T11:03:35;98411.36;;;17.33;40.18
66801;BME280;53703;50.326;19.122;2023-03-04T11:06:29;98409.69;;;17.33;40.13
66801;BME280;53703;50.326;19.122;2023-03-04T11:09:27;98408.58;;;17.40;40.21
66801;BME280;53703;50.326;19.122;2023-03-04T11:12:33;98409.48;;;17.54;40.39
66801;BME280;53703;50.326;19.122;2023-03-04T11:15:29;98403.80;;;17.33;40.22
66801;BME280;53703;50.326;19.122;2023-03-04T11:18:33;98403.42;;;17.28;40.36
66801;BME280;53703;50.326;19.122;2023-03-04T11:21:37;98401.61;;;17.28;40.32
66801;BME280;53703;50.326;19.122;2023-03-04T11:25:00;98400.48;;;17.26;40.16
66801;BME280;53703;50.326;19.122;2023-03-04T11:27:57;98397.70;;;17.23;40.33
66801;BME280;53703;50.326;19.122;2023-03-04T11:31:04;98390.88;;;17.21;40.22
66801;BME280;53703;50.326;19.122;2023-03-04T11:34:06;98389.72;;;17.34;40.14
66801;BME280;53703;50.326;19.122;2023-03-04T11:37:14;98388.77;;;17.36;40.51
66801;BME280;53703;50.326;19.122;2023-03-04T11:40:15;98383.77;;;17.35;40.41
66801;BME280;53703;50.326;19.122;2023-03-04T11:43:16;98376.14;;;17.24;40.22
66801;BME280;53703;50.326;19.122;2023-03-04T11:46:56;98375.58;;;17.24;40.16
66801;BME280;53703;50.326;19.122;2023-03-04T11:50:29;98376.66;;;17.26;40.71
66801;BME280;53703;50.326;19.122;2023-03-04T11:53:46;98372.69;;;17.19;40.41
66801;BME280;53703;50.326;19.122;2023-03-04T11:56:48;98367.84;;;17.23;40.32
66801;BME280;53703;50.326;19.122;2023-03-04T11:59:57;98364.73;;;17.19;40.39
66801;BME280;53703;50.326;19.122;2023-03-04T12:03:17;98363.70;;;17.24;40.44
66801;BME280;53703;50.326;19.122;2023-03-04T12:06:36;98355.93;;;17.14;40.50
66801;BME280;53703;50.326;19.122;2023-03-04T12:09:43;98350.84;;;17.24;40.34
66801;BME280;53703;50.326;19.122;2023-03-04T12:13:02;98345.56;;;17.26;39.98
66801;BME280;53703;50.326;19.122;2023-03-04T12:16:12;98347.52;;;17.18;40.80
66801;BME280;53703;50.326;19.122;2023-03-04T12:19:22;98347.25;;;17.22;42.08
66801;BME280;53703;50.326;19.122;2023-03-04T12:22:35;98346.70;;;17.30;42.44
66801;BME280;53703;50.326;19.122;2023-03-04T12:25:40;98348.15;;;17.29;43.73
66801;BME280;53703;50.326;19.122;2023-03-04T12:28:45;98343.11;;;17.32;45.28
66801;BME280;53703;50.326;19.122;2023-03-04T12:31:46;98339.46;;;17.32;46.15
66801;BME280;53703;50.326;19.122;2023-03-04T12:35:07;98337.02;;;17.46;46.21
66801;BME280;53703;50.326;19.122;2023-03-04T12:38:40;98337.29;;;17.44;46.51
66801;BME280;53703;50.326;19.122;2023-03-04T12:41:50;98337.38;;;17.63;45.01
66801;BME280;53703;50.326;19.122;2023-03-04T12:44:58;98331.23;;;17.69;44.00
66801;BME280;53703;50.326;19.122;2023-03-04T12:48:08;98330.08;;;17.74;44.39
66801;BME280;53703;50.326;19.122;2023-03-04T12:51:27;98327.16;;;17.65;46.80
66801;BME280;53703;50.326;19.122;2023-03-04T12:54:31;98327.80;;;17.72;47.39
66801;BME280;53703;50.326;19.122;2023-03-04T12:57:28;98321.19;;;17.88;45.98
66801;BME280;53703;50.326;19.122;2023-03-04T13:00:42;98319.93;;;17.95;46.40
66801;BME280;53703;50.326;19.122;2023-03-04T13:03:51;98318.59;;;17.82;47.77
66801;BME280;53703;50.326;19.122;2023-03-04T13:06:52;98312.39;;;17.93;47.38
66801;BME280;53703;50.326;19.122;2023-03-04T13:10:13;98308.40;;;18.01;45.62
66801;BME280;53703;50.326;19.122;2023-03-04T13:13:41;98308.27;;;18.08;45.26
66801;BME280;53703;50.326;19.122;2023-03-04T13:16:40;98306.72;;;17.99;45.68
66801;BME280;53703;50.326;19.122;2023-03-04T13:19:55;98302.26;;;18.01;45.54
66801;BME280;53703;50.326;19.122;2023-03-04T13:22:54;98301.40;;;18.05;44.65
66801;BME280;53703;50.326;19.122;2023-03-04T13:25:50;98298.34;;;18.15;44.71
66801;BME280;53703;50.326;19.122;2023-03-04T13:29:34;98299.16;;;18.27;44.25
66801;BME280;53703;50.326;19.122;2023-03-04T13:32:38;98296.45;;;18.19;44.09
66801;BME280;53703;50.326;19.122;2023-03-04T13:35:59;98294.89;;;18.19;44.02
66801;BME280;53703;50.326;19.122;2023-03-04T13:39:02;98294.50;;;18.19;43.95
66801;BME280;53703;50.326;19.122;2023-03-04T13:41:59;98295.41;;;18.39;44.06
66801;BME280;53703;50.326;19.122;2023-03-04T13:45:01;98288.42;;;18.23;43.71
66801;BME280;53703;50.326;19.122;2023-03-04T13:47:55;98292.95;;;18.20;43.98
66801;BME280;53703;50.326;19.122;2023-03-04T13:50:50;98290.11;;;18.21;43.67
66801;BME280;53703;50.326;19.122;2023-03-04T13:53:47;98291.03;;;18.27;43.60
66801;BME280;53703;50.326;19.122;2023-03-04T13:56:45;98289.39;;;18.28;42.95
66801;BME280;53703;50.326;19.122;2023-03-04T13:59:42;98288.73;;;18.23;42.98
66801;BME280;53703;50.326;19.122;2023-03-04T14:02:35;98287.17;;;18.24;42.83
66801;BME280;53703;50.326;19.122;2023-03-04T14:05:28;98283.66;;;18.25;42.89
66801;BME280;53703;50.326;19.122;2023-03-04T14:08:19;98285.14;;;18.24;42.80
66801;BME280;53703;50.326;19.122;2023-03-04T14:11:18;98279.59;;;18.27;43.10
66801;BME280;53703;50.326;19.122;2023-03-04T14:14:21;98278.48;;;18.26;42.68
66801;BME280;53703;50.326;19.122;2023-03-04T14:17:19;98272.74;;;18.24;42.94
66801;BME280;53703;50.326;19.122;2023-03-04T14:20:27;98276.06;;;18.28;42.32
66801;BME280;53703;50.326;19.122;2023-03-04T14:23:30;98275.64;;;18.26;42.10
66801;BME280;53703;50.326;19.122;2023-03-04T14:26:24;98270.63;;;18.29;41.97
66801;BME280;53703;50.326;19.122;2023-03-04T14:29:29;98270.49;;;18.22;42.05
66801;BME280;53703;50.326;19.122;2023-03-04T14:32:23;98269.56;;;18.26;41.75
66801;BME280;53703;50.326;19.122;2023-03-04T14:35:25;98269.05;;;18.32;41.61
66801;BME280;53703;50.326;19.122;2023-03-04T14:38:24;98269.42;;;18.28;41.60
66801;BME280;53703;50.326;19.122;2023-03-04T14:41:22;98275.31;;;18.33;41.24
66801;BME280;53703;50.326;19.122;2023-03-04T14:44:25;98268.57;;;18.31;41.42
66801;BME280;53703;50.326;19.122;2023-03-04T14:47:34;98263.84;;;18.32;41.33
66801;BME280;53703;50.326;19.122;2023-03-04T14:50:30;98258.79;;;18.31;41.20
66801;BME280;53703;50.326;19.122;2023-03-04T14:53:30;98260.96;;;18.34;41.09
66801;BME280;53703;50.326;19.122;2023-03-04T14:56:32;98258.37;;;18.35;40.95
66801;BME280;53703;50.326;19.122;2023-03-04T14:59:34;98259.52;;;18.32;40.95
66801;BME280;53703;50.326;19.122;2023-03-04T15:02:34;98255.08;;;18.32;40.96
66801;BME280;53703;50.326;19.122;2023-03-04T15:05:33;98247.77;;;18.37;40.65
66801;BME280;53703;50.326;19.122;2023-03-04T15:08:29;98251.59;;;18.35;40.56
66801;BME280;53703;50.326;19.122;2023-03-04T15:11:29;98250.56;;;18.43;40.78
66801;BME280;53703;50.326;19.122;2023-03-04T15:14:48;98248.42;;;18.45;40.99
66801;BME280;53703;50.326;19.122;2023-03-04T15:17:43;98247.91;;;18.59;40.27
66801;BME280;53703;50.326;19.122;2023-03-04T15:20:37;98241.45;;;18.68;40.15
66801;BME280;53703;50.326;19.122;2023-03-04T15:23:33;98237.64;;;18.67;41.27
66801;BME280;53703;50.326;19.122;2023-03-04T15:26:27;98237.73;;;18.60;42.14